Time;durP1;ratioP1;P1;durP2;ratioP2;P2;SDS_P1;SDS_P2;PMS_P1;PMS_P2;Temp;Humidity;BMP_temperature;BMP_pressure;BME280_temperature;BME280_humidity;BME280_pressure;Samples;Min_cycle;Max_cycle;Signal;HPM_P1;HPM_P2
2022/10/21 00:00:57;;;;;;;8.60;5.43;;;8.60;99.90;;;;;;5021749;28;20187;-71
2022/10/21 00:03:25;;;;;;;6.80;5.60;;;8.60;99.90;;;;;;5036653;28;20173;-72
2022/10/21 00:05:51;;;;;;;7.30;5.77;;;8.60;99.90;;;;;;5035549;28;20421;-70
2022/10/21 00:08:17;;;;;;;6.17;4.90;;;8.60;99.90;;;;;;5037179;28;20410;-71
2022/10/21 00:10:43;;;;;;;7.30;5.53;;;8.60;99.90;;;;;;5037094;28;20298;-71
2022/10/21 00:13:08;;;;;;;5.87;5.27;;;8.60;99.90;;;;;;5036980;28;20463;-71
2022/10/21 00:15:34;;;;;;;6.10;5.10;;;8.60;99.90;;;;;;5037548;28;20170;-71
2022/10/21 00:18:00;;;;;;;6.47;4.43;;;8.60;99.90;;;;;;5037628;28;20697;-71
2022/10/21 00:20:25;;;;;;;10.50;5.47;;;8.60;99.90;;;;;;5025920;28;20169;-71
2022/10/21 00:22:51;;;;;;;7.07;5.57;;;8.60;99.90;;;;;;5034504;28;20186;-71
2022/10/21 00:25:16;;;;;;;6.50;4.87;;;8.60;99.90;;;;;;5035619;28;20204;-72
2022/10/21 00:27:42;;;;;;;6.10;4.70;;;8.70;99.90;;;;;;5036029;28;20257;-70
2022/10/21 00:30:10;;;;;;;7.13;5.23;;;8.70;99.90;;;;;;5036058;28;20185;-71
2022/10/21 00:32:35;;;;;;;6.43;5.10;;;8.70;99.90;;;;;;5035862;28;20977;-71
2022/10/21 00:35:01;;;;;;;7.00;5.30;;;8.70;99.90;;;;;;5037357;28;20423;-71
2022/10/21 00:37:31;;;;;;;8.93;5.47;;;8.80;99.90;;;;;;5036039;28;20168;-70
2022/10/21 00:39:57;;;;;;;9.00;5.17;;;8.80;99.90;;;;;;5034872;28;21007;-70
2022/10/21 00:42:31;;;;;;;7.57;6.30;;;8.80;99.90;;;;;;5034007;28;20439;-70
2022/10/21 00:47:25;;;;;;;7.27;5.30;;;8.80;99.90;;;;;;5054093;22;20574;-70
2022/10/21 00:49:59;;;;;;;6.00;5.00;;;8.80;99.90;;;;;;5041748;28;20879;-71
2022/10/21 00:52:26;;;;;;;6.30;5.57;;;8.80;99.90;;;;;;5041347;28;20673;-69
2022/10/21 00:54:56;;;;;;;6.97;5.13;;;8.80;99.90;;;;;;5049794;28;20399;-69
2022/10/21 00:57:24;;;;;;;6.97;6.13;;;8.90;99.90;;;;;;5046331;28;20431;-70
2022/10/21 00:59:53;;;;;;;8.07;5.70;;;8.90;99.90;;;;;;5033845;28;20936;-69
2022/10/21 01:02:20;;;;;;;7.17;4.83;;;8.90;99.90;;;;;;5040240;28;20410;-70
2022/10/21 01:04:51;;;;;;;8.07;5.00;;;8.90;99.90;;;;;;5050783;28;20423;-71
2022/10/21 01:07:16;;;;;;;6.63;5.60;;;8.90;99.90;;;;;;5050903;28;20471;-71
2022/10/21 01:09:42;;;;;;;7.57;5.37;;;8.90;99.90;;;;;;5051079;28;20410;-70
2022/10/21 01:12:24;;;;;;;10.47;5.33;;;8.90;99.90;;;;;;5042044;28;21017;-70
2022/10/21 01:15:07;;;;;;;7.27;6.17;;;8.90;99.90;;;;;;5046710;28;20171;-70
2022/10/21 01:18:02;;;;;;;6.97;5.33;;;8.90;99.90;;;;;;5050329;28;20485;-70
2022/10/21 01:20:46;;;;;;;8.13;5.97;;;8.90;99.90;;;;;;5045239;28;20415;-69
2022/10/21 01:23:42;;;;;;;7.20;6.10;;;8.90;99.90;;;;;;5034898;28;20510;-71
2022/10/21 01:26:26;;;;;;;8.47;5.30;;;8.90;99.90;;;;;;5025788;28;20896;-69
2022/10/21 01:29:20;;;;;;;7.40;4.83;;;8.80;99.90;;;;;;5049907;28;20467;-70
2022/10/21 01:31:56;;;;;;;8.47;6.67;;;8.80;99.90;;;;;;5020101;28;20409;-70
2022/10/21 01:34:36;;;;;;;9.20;5.10;;;8.90;99.90;;;;;;5050837;28;20412;-71
2022/10/21 01:37:26;;;;;;;11.10;5.23;;;8.80;99.90;;;;;;5049297;28;20433;-70
2022/10/21 01:39:59;;;;;;;8.53;6.30;;;8.80;99.90;;;;;;5021273;28;20752;-70
2022/10/21 01:42:50;;;;;;;8.80;5.43;;;8.80;99.90;;;;;;5050922;28;20426;-70
2022/10/21 01:45:48;;;;;;;9.40;6.10;;;8.80;99.90;;;;;;5050478;28;20728;-70
2022/10/21 01:48:20;;;;;;;8.43;5.87;;;8.80;99.90;;;;;;5051205;28;20408;-71
2022/10/21 01:50:53;;;;;;;8.10;6.10;;;8.90;99.90;;;;;;5050885;28;20446;-70
2022/10/21 01:53:23;;;;;;;8.30;6.27;;;8.90;99.90;;;;;;5051163;28;20453;-70
2022/10/21 01:55:50;;;;;;;7.77;7.00;;;8.90;99.90;;;;;;5050903;28;20794;-70
2022/10/21 01:58:21;;;;;;;6.43;5.83;;;8.90;99.90;;;;;;5043759;28;20492;-71
2022/10/21 02:00:48;;;;;;;6.00;5.33;;;8.90;99.90;;;;;;5043609;28;20560;-70
2022/10/21 02:03:21;;;;;;;10.07;7.53;;;9.00;99.90;;;;;;5050709;28;20422;-69
2022/10/21 02:05:47;;;;;;;6.37;5.70;;;8.90;99.90;;;;;;5046347;28;20427;-70
2022/10/21 02:08:13;;;;;;;11.23;6.23;;;9.00;99.90;;;;;;5046893;28;20413;-70
2022/10/21 02:10:44;;;;;;;7.13;6.13;;;9.00;99.90;;;;;;5052602;28;20227;-70
2022/10/21 02:13:12;;;;;;;9.73;7.10;;;8.90;99.90;;;;;;5046911;28;20243;-71
2022/10/21 02:15:39;;;;;;;11.27;6.63;;;9.00;99.90;;;;;;5050448;28;20526;-69
2022/10/21 02:18:08;;;;;;;6.97;5.90;;;8.90;99.90;;;;;;5042807;28;20411;-71
2022/10/21 02:20:40;;;;;;;8.37;6.00;;;8.90;99.90;;;;;;5049587;28;20452;-70
2022/10/21 02:23:09;;;;;;;6.53;5.90;;;8.90;99.90;;;;;;5051378;28;20476;-70
2022/10/21 02:25:39;;;;;;;11.40;6.80;;;8.90;99.90;;;;;;5050295;28;20780;-71
2022/10/21 02:28:05;;;;;;;6.30;5.70;;;8.90;99.90;;;;;;5050997;28;20508;-70
2022/10/21 02:30:39;;;;;;;6.13;5.53;;;8.90;99.90;;;;;;5052981;28;20542;-69
2022/10/21 02:33:12;;;;;;;7.37;5.80;;;8.90;99.90;;;;;;5052780;28;20200;-70
2022/10/21 02:36:17;;;;;;;7.10;6.07;;;8.90;99.90;;;;;;5053825;28;20787;-71
2022/10/21 02:38:54;;;;;;;9.50;6.00;;;8.90;99.90;;;;;;5053385;28;20449;-71
2022/10/21 02:41:23;;;;;;;7.57;6.60;;;8.90;99.90;;;;;;5053665;28;20462;-70
2022/10/21 02:44:01;;;;;;;6.70;6.03;;;9.00;99.90;;;;;;5053749;28;20409;-71
2022/10/21 02:46:39;;;;;;;9.37;6.60;;;9.00;99.90;;;;;;5053454;28;20992;-71
2022/10/21 02:49:05;;;;;;;8.37;5.30;;;9.10;99.90;;;;;;5054050;28;20462;-70
2022/10/21 02:51:30;;;;;;;8.23;6.50;;;9.10;99.90;;;;;;5053730;28;20419;-71
2022/10/21 02:53:56;;;;;;;6.47;4.90;;;9.10;99.90;;;;;;5054064;28;20203;-70
2022/10/21 02:56:22;;;;;;;6.77;6.07;;;9.00;99.90;;;;;;5053691;28;20655;-70
2022/10/21 02:58:47;;;;;;;7.87;6.03;;;9.00;99.90;;;;;;5042632;28;20230;-70
2022/10/21 03:01:13;;;;;;;8.57;6.27;;;9.00;99.90;;;;;;5050140;28;20167;-70
2022/10/21 03:03:38;;;;;;;8.87;6.10;;;9.00;99.90;;;;;;5053699;28;20674;-70
2022/10/21 03:06:04;;;;;;;7.90;6.10;;;9.00;99.90;;;;;;5047128;28;20191;-71
2022/10/21 03:08:29;;;;;;;7.50;5.97;;;9.10;99.90;;;;;;5048117;28;20586;-70
2022/10/21 03:10:55;;;;;;;9.03;6.40;;;9.00;99.90;;;;;;5063093;28;20215;-70
2022/10/21 03:13:22;;;;;;;8.77;5.90;;;9.00;99.90;;;;;;5051718;28;20185;-70
2022/10/21 03:15:48;;;;;;;10.57;6.50;;;9.10;99.90;;;;;;5053274;28;20194;-70
2022/10/21 03:18:14;;;;;;;9.77;5.80;;;9.10;99.90;;;;;;5052001;28;20411;-70
2022/10/21 03:20:40;;;;;;;6.70;5.80;;;9.10;99.90;;;;;;5053613;28;20460;-71
2022/10/21 03:23:05;;;;;;;7.43;6.00;;;9.10;99.90;;;;;;5053648;28;20420;-71
2022/10/21 03:25:31;;;;;;;10.10;6.23;;;9.10;99.90;;;;;;5053038;28;20227;-70
2022/10/21 03:27:57;;;;;;;13.70;6.93;;;9.10;99.90;;;;;;5053210;28;20178;-71
2022/10/21 03:30:22;;;;;;;9.93;6.10;;;9.20;99.90;;;;;;5035215;28;20179;-70
2022/10/21 03:32:48;;;;;;;7.10;5.50;;;9.20;99.90;;;;;;5053039;28;20237;-71
2022/10/21 03:35:14;;;;;;;11.27;6.33;;;9.20;99.90;;;;;;5053120;28;20222;-70
2022/10/21 03:37:39;;;;;;;8.83;7.43;;;9.30;99.90;;;;;;5020548;28;20163;-70
2022/10/21 03:40:05;;;;;;;8.17;7.00;;;9.30;99.90;;;;;;5052926;28;20173;-71
2022/10/21 03:42:31;;;;;;;7.40;6.70;;;9.30;99.90;;;;;;5051351;28;20556;-70
2022/10/21 03:44:56;;;;;;;7.87;6.37;;;9.30;99.90;;;;;;5053150;28;20428;-71
2022/10/21 03:47:22;;;;;;;7.23;6.20;;;9.30;99.90;;;;;;5053067;28;20817;-70
2022/10/21 03:49:48;;;;;;;8.43;7.53;;;9.30;99.90;;;;;;5053349;28;20215;-71
2022/10/21 03:52:13;;;;;;;6.93;6.03;;;9.30;99.90;;;;;;5053210;28;20546;-71
2022/10/21 03:54:39;;;;;;;7.63;6.17;;;9.40;99.90;;;;;;5052926;28;20227;-71
2022/10/21 03:57:04;;;;;;;10.80;6.67;;;9.40;99.90;;;;;;5050080;28;20617;-70
2022/10/21 03:59:30;;;;;;;9.63;6.13;;;9.40;99.90;;;;;;5040500;28;20199;-70
2022/10/21 04:01:55;;;;;;;8.90;6.63;;;9.40;99.90;;;;;;5053243;28;20550;-71
2022/10/21 04:04:21;;;;;;;9.57;7.30;;;9.40;99.90;;;;;;5051162;28;20221;-71
2022/10/21 04:06:46;;;;;;;10.23;7.63;;;9.40;99.90;;;;;;5040525;28;20216;-71
2022/10/21 04:09:12;;;;;;;8.80;6.63;;;9.50;99.90;;;;;;5049068;28;20219;-71
2022/10/21 04:11:37;;;;;;;9.60;6.47;;;9.40;99.90;;;;;;5051255;28;20178;-71
2022/10/21 04:14:03;;;;;;;8.67;6.87;;;9.40;99.90;;;;;;5042605;28;20199;-70
2022/10/21 04:16:29;;;;;;;13.83;6.63;;;9.50;99.90;;;;;;5042717;28;20191;-70
2022/10/21 04:18:54;;;;;;;9.60;7.20;;;9.50;99.90;;;;;;5052506;28;20243;-71
2022/10/21 04:21:20;;;;;;;8.63;6.80;;;9.50;99.90;;;;;;5051175;28;20301;-71
2022/10/21 04:23:45;;;;;;;6.60;5.60;;;9.40;99.90;;;;;;5052604;28;20169;-71
2022/10/21 04:26:11;;;;;;;11.37;6.63;;;9.40;99.90;;;;;;5052178;28;20205;-70
2022/10/21 04:28:37;;;;;;;8.63;5.87;;;9.40;99.90;;;;;;5040658;28;20190;-71
2022/10/21 04:31:03;;;;;;;10.27;6.80;;;9.40;99.90;;;;;;5047487;28;20184;-70
2022/10/21 04:33:28;;;;;;;7.93;5.87;;;9.40;99.90;;;;;;5052463;28;20207;-70
2022/10/21 04:35:54;;;;;;;9.63;5.43;;;9.40;99.90;;;;;;5052628;28;20850;-71
2022/10/21 04:38:22;;;;;;;10.03;6.97;;;9.40;99.90;;;;;;5052665;28;20182;-71
2022/10/21 04:40:54;;;;;;;10.03;7.40;;;9.40;99.90;;;;;;5051038;28;20442;-71
2022/10/21 04:43:19;;;;;;;8.10;6.57;;;9.40;99.90;;;;;;5052397;28;20844;-70
2022/10/21 04:45:45;;;;;;;15.17;7.03;;;9.30;99.90;;;;;;5039128;28;20536;-70
2022/10/21 04:48:12;;;;;;;7.60;6.80;;;9.30;99.90;;;;;;5039182;28;20215;-70
2022/10/21 04:50:38;;;;;;;8.43;6.83;;;9.30;99.90;;;;;;5036980;28;20186;-69
2022/10/21 04:53:03;;;;;;;10.93;7.23;;;9.30;99.90;;;;;;5046763;28;20448;-69
2022/10/21 04:55:29;;;;;;;9.90;6.90;;;9.30;99.90;;;;;;5044394;28;20263;-70
2022/10/21 04:57:54;;;;;;;8.70;6.37;;;9.30;99.90;;;;;;5038380;28;20199;-70
2022/10/21 05:00:20;;;;;;;8.07;6.47;;;9.30;99.90;;;;;;5039626;28;20257;-70
2022/10/21 05:02:45;;;;;;;8.23;6.10;;;9.30;99.90;;;;;;5045336;28;20574;-71
2022/10/21 05:05:11;;;;;;;8.83;7.43;;;9.30;99.90;;;;;;5033383;28;20581;-71
2022/10/21 05:07:36;;;;;;;12.57;7.20;;;9.30;99.90;;;;;;5035584;28;20233;-70
2022/10/21 05:10:02;;;;;;;8.83;6.57;;;9.30;99.90;;;;;;5051601;28;20184;-71
2022/10/21 05:12:28;;;;;;;18.40;7.37;;;9.30;99.90;;;;;;5041901;28;20298;-70
2022/10/21 05:14:53;;;;;;;8.70;6.90;;;9.30;99.90;;;;;;5033629;28;20165;-70
2022/10/21 05:17:19;;;;;;;10.00;7.40;;;9.30;99.90;;;;;;5030933;28;20336;-70
2022/10/21 05:19:44;;;;;;;10.97;8.00;;;9.30;99.90;;;;;;5036819;28;20176;-71
2022/10/21 05:22:11;;;;;;;8.03;7.20;;;9.30;99.90;;;;;;5046406;28;20228;-71
2022/10/21 05:24:36;;;;;;;11.10;7.87;;;9.30;99.90;;;;;;5042823;28;20222;-69
2022/10/21 05:27:02;;;;;;;8.80;7.03;;;9.40;99.90;;;;;;5046227;28;20427;-70
2022/10/21 05:29:27;;;;;;;15.60;8.30;;;9.40;99.90;;;;;;5049659;28;20173;-69
2022/10/21 05:31:53;;;;;;;9.77;7.47;;;9.40;99.90;;;;;;5051389;28;20162;-69
2022/10/21 05:34:18;;;;;;;10.23;8.03;;;9.40;99.90;;;;;;5051075;28;20182;-71
2022/10/21 05:36:47;;;;;;;13.00;7.20;;;9.50;99.90;;;;;;5037975;28;20203;-71
2022/10/21 05:39:13;;;;;;;10.23;7.70;;;9.50;99.90;;;;;;5036251;28;20702;-71
2022/10/21 05:41:39;;;;;;;12.00;8.10;;;9.50;99.90;;;;;;5051208;28;20495;-71
2022/10/21 05:44:04;;;;;;;9.87;7.43;;;9.60;99.90;;;;;;5040943;28;20407;-71
2022/10/21 05:46:30;;;;;;;8.50;7.67;;;9.50;99.90;;;;;;5050969;28;20224;-71
2022/10/21 05:48:55;;;;;;;12.03;7.50;;;9.60;99.90;;;;;;5047563;28;20550;-70
2022/10/21 05:51:25;;;;;;;9.27;6.50;;;9.60;99.90;;;;;;5049867;28;20538;-70
2022/10/21 05:53:51;;;;;;;13.30;7.50;;;9.60;99.90;;;;;;5052022;28;20184;-70
2022/10/21 05:56:17;;;;;;;7.33;6.33;;;9.60;99.90;;;;;;5042584;28;20419;-72
2022/10/21 05:58:42;;;;;;;10.17;7.23;;;9.60;99.90;;;;;;5041446;28;20410;-73
2022/10/21 06:01:08;;;;;;;9.73;6.70;;;9.70;99.90;;;;;;5033100;28;20270;-72
2022/10/21 06:03:33;;;;;;;10.57;7.27;;;9.70;99.90;;;;;;5036902;28;20182;-72
2022/10/21 06:06:01;;;;;;;9.33;6.20;;;9.70;99.90;;;;;;5050536;28;20751;-73
2022/10/21 06:08:28;;;;;;;10.47;7.70;;;9.80;99.90;;;;;;5050649;28;20676;-72
2022/10/21 06:11:01;;;;;;;12.37;8.20;;;9.70;99.90;;;;;;5050811;28;20480;-70
2022/10/21 06:13:27;;;;;;;12.80;8.83;;;9.80;99.90;;;;;;5043549;28;20454;-71
2022/10/21 06:15:53;;;;;;;9.40;8.40;;;9.80;99.90;;;;;;5028900;28;20433;-71
2022/10/21 06:18:18;;;;;;;11.63;7.23;;;9.90;99.90;;;;;;5032502;28;20864;-71
2022/10/21 06:20:44;;;;;;;9.90;7.10;;;9.80;99.90;;;;;;5043159;28;20170;-70
2022/10/21 06:23:11;;;;;;;9.97;7.77;;;9.90;99.90;;;;;;5035539;28;20665;-71
2022/10/21 06:25:37;;;;;;;8.60;7.30;;;9.90;99.90;;;;;;5036858;28;20189;-71
2022/10/21 06:28:02;;;;;;;10.10;6.97;;;9.90;99.90;;;;;;5047798;28;20465;-71
2022/10/21 06:30:28;;;;;;;9.30;7.23;;;10.00;99.90;;;;;;5034826;28;20254;-71
2022/10/21 06:32:53;;;;;;;11.07;7.00;;;10.00;99.90;;;;;;5044287;28;20183;-69
2022/10/21 06:35:19;;;;;;;12.67;9.33;;;10.10;99.90;;;;;;5049752;28;20167;-70
2022/10/21 06:37:44;;;;;;;11.60;8.20;;;10.10;99.90;;;;;;5034776;28;20249;-71
2022/10/21 06:40:10;;;;;;;10.37;7.00;;;10.00;99.90;;;;;;5047746;28;20245;-71
2022/10/21 06:42:36;;;;;;;11.07;8.27;;;10.00;99.90;;;;;;5041498;28;20175;-71
2022/10/21 06:45:01;;;;;;;9.43;7.00;;;10.10;99.90;;;;;;5050026;28;20417;-71
2022/10/21 06:47:27;;;;;;;14.20;7.83;;;10.00;99.90;;;;;;5048037;28;20205;-71
2022/10/21 06:49:52;;;;;;;9.67;8.00;;;10.10;99.90;;;;;;5050211;28;20203;-72
2022/10/21 06:52:18;;;;;;;13.87;8.67;;;10.10;99.90;;;;;;5048042;28;20640;-71
2022/10/21 06:54:44;;;;;;;10.43;8.60;;;10.10;99.90;;;;;;5049545;28;20171;-71
2022/10/21 06:57:09;;;;;;;10.97;7.70;;;10.10;99.90;;;;;;5046170;28;20202;-72
2022/10/21 06:59:35;;;;;;;9.50;7.87;;;10.10;99.90;;;;;;5037867;28;20171;-71
2022/10/21 07:02:00;;;;;;;12.50;8.33;;;10.20;99.90;;;;;;5039776;28;20562;-71
2022/10/21 07:04:26;;;;;;;11.00;7.87;;;10.20;99.90;;;;;;5049367;28;20266;-71
2022/10/21 07:06:51;;;;;;;9.70;8.47;;;10.20;99.90;;;;;;5048835;28;20233;-72
2022/10/21 07:09:17;;;;;;;10.60;7.87;;;10.30;99.90;;;;;;5049377;28;20235;-71
2022/10/21 07:11:43;;;;;;;14.50;8.70;;;10.30;99.90;;;;;;5049419;28;20259;-70
2022/10/21 07:14:10;;;;;;;15.20;8.87;;;10.50;99.90;;;;;;5048974;28;20593;-70
2022/10/21 07:16:37;;;;;;;13.47;8.20;;;10.50;99.90;;;;;;5043108;28;20433;-70
2022/10/21 07:19:04;;;;;;;11.10;8.53;;;10.60;99.90;;;;;;5049403;28;20450;-72
2022/10/21 07:21:30;;;;;;;11.27;7.83;;;10.60;99.90;;;;;;5051492;28;20430;-70
2022/10/21 07:23:58;;;;;;;10.90;7.80;;;10.70;99.90;;;;;;5069520;22;20495;-75
2022/10/21 07:26:25;;;;;;;12.37;7.93;;;10.80;99.90;;;;;;5029237;28;20406;-72
2022/10/21 07:28:51;;;;;;;10.40;7.30;;;10.80;99.90;;;;;;5048382;28;20412;-72
2022/10/21 07:31:18;;;;;;;9.13;7.00;;;10.80;99.90;;;;;;5038401;28;20406;-71
2022/10/21 07:33:45;;;;;;;13.43;8.33;;;10.90;99.90;;;;;;5033001;28;20454;-71
2022/10/21 07:36:19;;;;;;;13.20;8.47;;;10.90;99.90;;;;;;5032392;28;20501;-70
2022/10/21 07:38:47;;;;;;;12.07;7.90;;;10.90;99.90;;;;;;5029694;28;20418;-73
2022/10/21 07:41:19;;;;;;;13.03;8.00;;;10.90;99.90;;;;;;5030742;28;20828;-73
2022/10/21 07:43:45;;;;;;;9.57;7.90;;;11.00;99.90;;;;;;5016993;28;20426;-71
2022/10/21 07:46:11;;;;;;;8.97;6.20;;;11.00;99.90;;;;;;5033546;28;20526;-72
2022/10/21 07:48:37;;;;;;;8.90;6.70;;;11.00;99.90;;;;;;5032748;28;20916;-73
2022/10/21 07:51:08;;;;;;;9.80;8.47;;;11.10;99.90;;;;;;5017070;28;20204;-71
2022/10/21 07:53:34;;;;;;;9.77;8.07;;;11.10;99.90;;;;;;5022302;28;20504;-72
2022/10/21 07:56:01;;;;;;;9.67;7.00;;;11.20;99.90;;;;;;5034752;28;20411;-73
2022/10/21 07:58:27;;;;;;;10.37;7.60;;;11.20;99.90;;;;;;5020803;28;20173;-73
2022/10/21 08:00:57;;;;;;;7.97;7.13;;;11.30;99.90;;;;;;5016326;28;20443;-73
2022/10/21 08:03:22;;;;;;;13.03;7.33;;;11.40;99.90;;;;;;5012543;28;20266;-73
2022/10/21 08:05:48;;;;;;;11.10;6.87;;;11.40;99.90;;;;;;5021366;28;20896;-73
2022/10/21 08:08:13;;;;;;;10.40;7.77;;;11.50;99.90;;;;;;5017737;28;20180;-73
2022/10/21 08:10:40;;;;;;;10.77;7.10;;;11.60;99.90;;;;;;5025332;28;20199;-73
2022/10/21 08:13:05;;;;;;;9.40;6.97;;;11.60;99.90;;;;;;5033959;28;20202;-72
2022/10/21 08:15:31;;;;;;;8.30;6.50;;;11.70;99.90;;;;;;5016441;28;21017;-72
2022/10/21 08:17:56;;;;;;;10.63;8.27;;;11.60;99.90;;;;;;5022766;28;20626;-71
2022/10/21 08:20:22;;;;;;;9.80;6.90;;;11.60;99.90;;;;;;5020619;28;20211;-72
2022/10/21 08:22:47;;;;;;;10.17;6.80;;;11.50;99.90;;;;;;5019065;28;20560;-73
2022/10/21 08:25:15;;;;;;;10.90;7.50;;;11.60;99.90;;;;;;5011852;28;20208;-72
2022/10/21 08:27:41;;;;;;;8.67;6.93;;;11.80;99.90;;;;;;5027145;28;20262;-72
2022/10/21 08:30:07;;;;;;;9.63;7.10;;;11.90;99.90;;;;;;5013357;28;20843;-71
2022/10/21 08:32:32;;;;;;;8.67;6.90;;;11.90;99.90;;;;;;5018601;28;20203;-72
2022/10/21 08:34:58;;;;;;;7.73;6.40;;;11.90;99.90;;;;;;5012471;28;20451;-71
2022/10/21 08:37:23;;;;;;;8.63;7.03;;;12.00;99.90;;;;;;5019701;28;20172;-71
2022/10/21 08:39:49;;;;;;;8.60;7.00;;;12.00;99.90;;;;;;5018209;28;20172;-72
2022/10/21 08:42:16;;;;;;;9.37;7.40;;;12.10;99.90;;;;;;5016260;28;20187;-71
2022/10/21 08:44:55;;;;;;;8.63;7.17;;;12.20;99.90;;;;;;5010529;28;20196;-71
2022/10/21 08:47:44;;;;;;;9.13;7.13;;;12.30;99.90;;;;;;5015833;28;20414;-71
2022/10/21 08:50:15;;;;;;;8.60;7.70;;;12.50;99.90;;;;;;5014512;28;20469;-72
2022/10/21 08:53:01;;;;;;;9.40;7.10;;;12.50;99.90;;;;;;5014722;28;20473;-73
2022/10/21 08:55:39;;;;;;;10.80;6.67;;;12.60;99.90;;;;;;5029662;28;20426;-71
2022/10/21 08:58:08;;;;;;;13.70;7.20;;;12.70;99.90;;;;;;5014942;28;20474;-72
2022/10/21 09:00:43;;;;;;;15.50;7.83;;;12.90;99.90;;;;;;5012834;28;20791;-70
2022/10/21 09:03:27;;;;;;;6.37;5.77;;;12.90;99.90;;;;;;5009984;28;20438;-65
2022/10/21 09:06:08;;;;;;;7.60;6.10;;;13.00;99.90;;;;;;5015348;28;20434;-70
2022/10/21 09:08:57;;;;;;;8.50;7.27;;;13.20;99.90;;;;;;5008510;28;20462;-72
2022/10/21 09:11:37;;;;;;;9.80;8.20;;;13.40;99.90;;;;;;5018497;28;20459;-71
2022/10/21 09:14:42;;;;;;;8.60;6.83;;;13.50;99.90;;;;;;5028137;28;20842;-71
2022/10/21 09:17:26;;;;;;;7.80;6.60;;;13.40;99.90;;;;;;5009402;28;20865;-71
2022/10/21 09:20:08;;;;;;;12.30;7.60;;;13.50;99.90;;;;;;5024047;28;20924;-71
2022/10/21 09:22:55;;;;;;;7.53;6.70;;;13.50;99.90;;;;;;5008485;28;20904;-71
2022/10/21 09:25:33;;;;;;;15.37;11.30;;;13.50;99.90;;;;;;5022705;28;20447;-71
2022/10/21 09:28:07;;;;;;;9.83;7.33;;;13.40;99.90;;;;;;5013085;28;20419;-71
2022/10/21 09:30:33;;;;;;;8.83;7.40;;;13.30;99.90;;;;;;5018137;28;20783;-71
2022/10/21 09:32:59;;;;;;;9.87;8.60;;;13.70;99.90;;;;;;5019355;28;20447;-71
2022/10/21 09:35:28;;;;;;;11.40;8.10;;;14.00;99.90;;;;;;5031723;28;20514;-71
2022/10/21 09:37:56;;;;;;;9.00;7.43;;;14.40;99.90;;;;;;5029748;28;20411;-71
2022/10/21 09:40:25;;;;;;;9.23;7.00;;;14.60;99.90;;;;;;5030845;28;20435;-71
2022/10/21 09:42:57;;;;;;;12.20;7.73;;;14.50;99.90;;;;;;5032430;28;20404;-71
2022/10/21 09:45:39;;;;;;;9.10;7.33;;;14.20;99.90;;;;;;5022763;28;20845;-72
2022/10/21 09:48:17;;;;;;;8.27;7.40;;;14.30;99.90;;;;;;5006458;28;20422;-74
2022/10/21 09:50:49;;;;;;;11.07;6.60;;;14.30;99.90;;;;;;5001735;28;20497;-72
2022/10/21 09:53:20;;;;;;;11.63;6.67;;;14.20;99.90;;;;;;5028040;28;20848;-72
2022/10/21 09:55:49;;;;;;;9.13;6.77;;;14.50;99.90;;;;;;5019343;28;20431;-72
2022/10/21 09:58:42;;;;;;;8.53;7.40;;;14.30;99.90;;;;;;5029166;28;20410;-72
2022/10/21 10:01:14;;;;;;;7.90;6.90;;;14.00;99.90;;;;;;5029699;28;20410;-72
2022/10/21 10:03:45;;;;;;;7.43;6.73;;;14.00;99.90;;;;;;5021664;28;20525;-72
2022/10/21 10:06:11;;;;;;;9.43;7.10;;;14.10;99.90;;;;;;5011348;28;20431;-72
2022/10/21 10:08:46;;;;;;;8.23;6.57;;;14.50;99.90;;;;;;5021955;28;20461;-72
2022/10/21 10:11:12;;;;;;;8.00;6.70;;;14.50;99.90;;;;;;5028010;28;20424;-72
2022/10/21 10:13:42;;;;;;;10.03;7.57;;;14.60;99.90;;;;;;5033292;28;20465;-72
2022/10/21 10:16:12;;;;;;;9.17;7.30;;;14.70;99.90;;;;;;5033683;28;20414;-72
2022/10/21 10:18:38;;;;;;;9.77;7.50;;;14.70;99.90;;;;;;5011815;28;20839;-72
2022/10/21 10:21:12;;;;;;;8.83;6.83;;;14.50;99.90;;;;;;5032389;28;20400;-72
2022/10/21 10:23:42;;;;;;;6.63;6.00;;;14.60;99.90;;;;;;5007528;28;20188;-72
2022/10/21 10:26:08;;;;;;;8.23;7.00;;;15.00;99.90;;;;;;5028551;28;20415;-72
2022/10/21 10:28:33;;;;;;;8.77;6.67;;;14.80;99.90;;;;;;5009040;28;20481;-71
2022/10/21 10:30:59;;;;;;;9.40;7.50;;;14.70;99.90;;;;;;5031038;28;20523;-72
2022/10/21 10:33:34;;;;;;;8.77;7.87;;;14.70;99.90;;;;;;5030996;28;20259;-72
2022/10/21 10:36:03;;;;;;;10.23;7.33;;;15.00;99.90;;;;;;5028740;28;20181;-72
2022/10/21 10:38:34;;;;;;;8.90;7.83;;;15.10;99.90;;;;;;5030874;28;20449;-71
2022/10/21 10:41:13;;;;;;;8.53;7.50;;;15.20;99.90;;;;;;5028061;28;20835;-71
2022/10/21 10:43:48;;;;;;;9.27;8.30;;;15.40;99.90;;;;;;5009966;28;20482;-70
2022/10/21 10:46:23;;;;;;;9.20;6.97;;;15.10;99.90;;;;;;5015203;28;20902;-72
2022/10/21 10:48:51;;;;;;;8.10;7.30;;;15.30;99.90;;;;;;5030756;28;20406;-70
2022/10/21 10:51:24;;;;;;;11.73;7.80;;;15.30;99.90;;;;;;5030186;28;20430;-71
2022/10/21 10:54:01;;;;;;;7.17;6.43;;;15.50;99.90;;;;;;5028756;28;20462;-72
2022/10/21 10:56:48;;;;;;;10.53;7.87;;;15.60;99.90;;;;;;5034583;28;20735;-72
2022/10/21 10:59:48;;;;;;;8.33;6.80;;;15.70;99.90;;;;;;5017554;28;20480;-72
2022/10/21 11:02:42;;;;;;;8.43;7.10;;;15.90;99.90;;;;;;4994663;28;20412;-71
2022/10/21 11:05:08;;;;;;;11.70;7.90;;;15.70;99.90;;;;;;4995771;28;20755;-71
2022/10/21 11:07:47;;;;;;;9.27;8.37;;;15.60;99.90;;;;;;4995572;28;20405;-73
2022/10/21 11:10:15;;;;;;;10.77;8.43;;;15.60;99.90;;;;;;4994513;28;20162;-70
2022/10/21 11:12:41;;;;;;;9.00;7.43;;;15.80;99.90;;;;;;4995416;28;20508;-71
2022/10/21 11:15:13;;;;;;;10.30;7.63;;;15.90;99.90;;;;;;5003896;28;20462;-71
2022/10/21 11:17:43;;;;;;;10.07;8.17;;;15.80;99.90;;;;;;5013485;28;20166;-71
2022/10/21 11:20:29;;;;;;;8.67;7.67;;;15.90;99.90;;;;;;5013586;28;20488;-71
2022/10/21 11:23:12;;;;;;;9.30;7.27;;;16.20;99.90;;;;;;5013851;28;20499;-70
2022/10/21 11:25:54;;;;;;;9.27;7.20;;;16.20;99.90;;;;;;5014240;28;20452;-71
2022/10/21 11:28:48;;;;;;;9.43;7.93;;;16.10;99.90;;;;;;5014845;28;20413;-70
2022/10/21 11:31:23;;;;;;;9.00;8.10;;;16.00;99.90;;;;;;5014590;28;20422;-70
2022/10/21 11:33:59;;;;;;;9.53;8.53;;;15.80;99.90;;;;;;5023149;28;20562;-72
2022/10/21 11:36:35;;;;;;;11.37;8.07;;;15.80;99.90;;;;;;5030481;28;20409;-70
2022/10/21 11:39:26;;;;;;;8.90;7.97;;;15.70;99.90;;;;;;5019929;28;20404;-71
2022/10/21 11:42:32;;;;;;;8.30;7.50;;;15.80;99.90;;;;;;5033792;28;20776;-71
2022/10/21 11:45:27;;;;;;;7.63;6.50;;;16.10;99.90;;;;;;4972190;28;20993;-71
2022/10/21 11:47:59;;;;;;;9.70;7.97;;;16.20;99.90;;;;;;5025311;28;20419;-71
2022/10/21 11:50:33;;;;;;;9.23;6.93;;;16.50;99.90;;;;;;5026195;28;20406;-70
2022/10/21 11:53:28;;;;;;;11.17;7.67;;;16.40;99.90;;;;;;5021520;28;20506;-71
2022/10/21 11:56:06;;;;;;;9.17;7.97;;;16.30;99.90;;;;;;5033765;28;20889;-71
2022/10/21 11:58:43;;;;;;;7.73;6.90;;;16.20;99.90;;;;;;5033725;28;20827;-71
2022/10/21 12:01:13;;;;;;;10.33;7.90;;;16.20;99.90;;;;;;5032014;28;20458;-71
2022/10/21 12:03:54;;;;;;;8.00;7.20;;;16.20;99.90;;;;;;5031228;28;20524;-71
2022/10/21 12:06:25;;;;;;;9.97;7.70;;;16.10;99.90;;;;;;5033471;28;20405;-71
2022/10/21 12:08:57;;;;;;;11.67;7.37;;;16.10;99.90;;;;;;5001499;28;20460;-71
2022/10/21 12:11:37;;;;;;;10.37;7.30;;;16.30;99.90;;;;;;5033446;28;20768;-71
2022/10/21 12:14:20;;;;;;;8.17;7.03;;;16.70;99.90;;;;;;5033229;28;20865;-71
2022/10/21 12:16:46;;;;;;;9.50;7.83;;;16.40;99.90;;;;;;5032884;28;20484;-71
2022/10/21 12:19:13;;;;;;;7.73;6.80;;;16.40;99.90;;;;;;5032934;28;20914;-70
2022/10/21 12:21:43;;;;;;;8.27;6.93;;;16.30;99.90;;;;;;5028489;28;20500;-71
2022/10/21 12:24:27;;;;;;;8.43;7.37;;;16.50;99.90;;;;;;5027317;28;20939;-71
2022/10/21 12:27:08;;;;;;;8.00;7.20;;;16.70;99.90;;;;;;5002390;28;20488;-71
2022/10/21 12:29:56;;;;;;;10.40;7.97;;;16.70;99.90;;;;;;5016735;28;20448;-71
2022/10/21 12:32:28;;;;;;;10.40;7.83;;;16.60;99.90;;;;;;5029777;28;20909;-72
2022/10/21 12:34:54;;;;;;;8.30;7.50;;;16.50;99.90;;;;;;5002021;28;20542;-71
2022/10/21 12:37:44;;;;;;;10.70;7.70;;;16.50;99.90;;;;;;5016481;28;20441;-73
2022/10/21 12:40:16;;;;;;;8.70;7.30;;;16.40;99.90;;;;;;5016931;28;20780;-71
2022/10/21 12:42:58;;;;;;;9.90;8.67;;;16.40;99.90;;;;;;5013966;28;22847;-71
2022/10/21 12:45:32;;;;;;;13.40;7.37;;;16.30;99.90;;;;;;5012652;28;20462;-71
2022/10/21 12:47:59;;;;;;;8.53;7.63;;;16.30;99.90;;;;;;5025754;28;20749;-72
2022/10/21 12:50:30;;;;;;;10.70;8.13;;;16.30;99.90;;;;;;5027228;28;20418;-71
2022/10/21 12:53:13;;;;;;;13.33;8.03;;;16.30;99.90;;;;;;5022697;28;20462;-71
2022/10/21 12:55:40;;;;;;;9.27;6.93;;;16.40;99.90;;;;;;5032404;28;20423;-70
2022/10/21 12:58:25;;;;;;;9.73;8.77;;;16.50;99.90;;;;;;5032388;28;20421;-71
2022/10/21 13:00:54;;;;;;;8.60;7.07;;;16.40;99.90;;;;;;4999961;28;20425;-71
2022/10/21 13:03:49;;;;;;;7.70;6.63;;;16.30;99.90;;;;;;5028143;28;20417;-71
2022/10/21 13:06:15;;;;;;;9.43;8.00;;;16.20;99.90;;;;;;5031871;28;20454;-71
2022/10/21 13:08:54;;;;;;;8.07;6.43;;;16.30;99.90;;;;;;5023939;28;20426;-71